Serena, Illinois
Current Conditions -  °F | °C
As of 12:15 AM on Monday 26 Jan 2015 (Local Time) from KC09 Reporting Station
Clear Clear  
Wind Chill: 11°   Ceiling: Unl
Heat Index: 19°   Visibility: 10mi
Dew Point: 17°   Wind: 6mph
Humidity: 89%   Direction: 340°NNW
Pressure: 29.98"   Gusts: NA
Location:  41.49°N, 88.73°W
Report Text: KC09 260615Z AUTO 34005KT 10SM CLR M07/M09 A2998 RMK AO2 T10701086
Loading
Personal Weather Stations






























Interactive Weather Map New forecast layout! Learn more

10-Day Weather Forecast

Advertisements
Track Severe Weather on mobile